createdAt,value
2019-04-16T00:01:59.519Z,-21516.58
2019-04-16T00:04:29.478Z,-21515.18
2019-04-16T00:07:15.465Z,-21499.65
2019-04-16T00:10:03.590Z,-21489.02
2019-04-16T00:12:36.275Z,-21488.46
2019-04-16T00:15:05.809Z,-21504.41
2019-04-16T00:17:34.099Z,-21509.17
2019-04-16T00:20:05.870Z,-21499.51
2019-04-16T00:22:46.385Z,-21507.49
2019-04-16T00:25:14.801Z,-21482.99
2019-04-16T00:27:43.116Z,-21482.29
2019-04-16T00:30:12.574Z,-21498.11
2019-04-16T00:32:42.590Z,-21503.85
2019-04-16T00:35:15.485Z,-21481.31
2019-04-16T00:37:42.610Z,-21500.36
2019-04-16T00:40:11.030Z,-21503.85
2019-04-16T00:42:39.467Z,-21504.97
2019-04-16T00:45:08.009Z,-21505.67
2019-04-16T00:47:36.292Z,-21495.74
2019-04-16T00:50:06.212Z,-21494.48
2019-04-16T00:52:36.935Z,-21483.55
2019-04-16T00:55:05.969Z,-21495.74
2019-04-16T00:57:34.265Z,-21503.29
2019-04-16T01:00:03.499Z,-21504.55
2019-04-16T01:02:31.851Z,-21488.46
2019-04-16T01:05:00.118Z,-21495.88
2019-04-16T01:07:28.388Z,-21485.23
2019-04-16T01:09:56.680Z,-21483.41
2019-04-16T01:12:24.954Z,-21467.59
2019-04-16T01:14:53.245Z,-21483.14
2019-04-16T01:17:21.521Z,-21470.95
2019-04-16T01:19:49.818Z,-21479.91
2019-04-16T01:22:18.166Z,-21479.64
2019-04-16T01:24:46.524Z,-21459.59
2019-04-16T01:27:15.386Z,-21466.88
2019-04-16T01:29:43.667Z,-21469.69
2019-04-16T01:32:13.586Z,-21476.97
2019-04-16T01:34:43.494Z,-21478.65
2019-04-16T01:37:19.475Z,-21453.56
2019-04-16T01:39:52.110Z,-21456.65
2019-04-16T01:42:23.379Z,-21474.59
2019-04-16T01:44:50.454Z,-21467.86
2019-04-16T01:47:18.728Z,-21455.81
2019-04-16T01:49:46.989Z,-21475.57
2019-04-16T01:52:18.678Z,-21474.03
2019-04-16T01:54:48.026Z,-21461.13
2019-04-16T01:57:16.297Z,-21483.14
2019-04-16T01:59:44.556Z,-21483.55
2019-04-16T02:02:15.752Z,-21483.14
2019-04-16T02:04:43.189Z,-21460.57
2019-04-16T02:07:11.462Z,-21481.73
2019-04-16T02:09:39.765Z,-21484.68
2019-04-16T02:12:12.977Z,-21453.85
2019-04-16T02:14:38.019Z,-21439.81
2019-04-16T02:17:06.279Z,-21440.51
2019-04-16T02:19:34.647Z,-21451.88
2019-04-16T02:22:02.975Z,-21461.83
2019-04-16T02:24:31.256Z,-21462.68
2019-04-16T02:26:59.519Z,-21460.86
2019-04-16T02:29:30.526Z,-21470.81
2019-04-16T02:31:57.824Z,-21447.82
2019-04-16T02:34:26.103Z,-21469.69
2019-04-16T02:37:00.577Z,-21476.41
2019-04-16T02:39:38.688Z,-21467.73
2019-04-16T02:41:58.127Z,-21429.71
2019-04-16T02:44:24.409Z,-21440.51
2019-04-16T02:46:52.665Z,-21439.68
2019-04-16T02:49:24.459Z,-21461.42
2019-04-16T02:51:55.650Z,-21451.88
2019-04-16T02:54:32.939Z,-21448.80
2019-04-16T02:57:09.051Z,-21443.04
2019-04-16T02:59:45.820Z,-21454.13
2019-04-16T03:02:13.462Z,-21460.44
2019-04-16T03:04:45.896Z,-21440.93
2019-04-16T03:07:14.298Z,-21439.95
2019-04-16T03:09:42.492Z,-21422.41
2019-04-16T03:12:10.771Z,-21427.32
2019-04-16T03:14:39.057Z,-21430.69
2019-04-16T03:17:11.941Z,-21421.99
2019-04-16T03:19:41.851Z,-21423.95
2019-04-16T03:22:10.141Z,-21421.43
2019-04-16T03:24:40.233Z,-21430.69
2019-04-16T03:27:08.394Z,-21423.67
2019-04-16T03:29:36.737Z,-21422.82
2019-04-16T03:32:05.016Z,-21421.14
2019-04-16T03:34:33.310Z,-21422.12
2019-04-16T03:37:02.075Z,-21407.09
2019-04-16T03:39:31.444Z,-21430.41
2019-04-16T03:41:59.689Z,-21429.57
2019-04-16T03:44:27.978Z,-21437.57
2019-04-16T03:46:56.760Z,-21451.04
2019-04-16T03:49:27.774Z,-21437.29
2019-04-16T03:51:55.061Z,-21445.71
2019-04-16T03:54:23.351Z,-21435.88
2019-04-16T03:56:51.718Z,-21419.59
2019-04-16T03:59:20.008Z,-21429.43
2019-04-16T04:01:48.292Z,-21449.92
2019-04-16T04:04:16.573Z,-21439.25
2019-04-16T04:06:44.927Z,-21443.18
2019-04-16T04:09:13.221Z,-21401.19
2019-04-16T04:11:42.002Z,-21420.57
2019-04-16T04:14:10.388Z,-21417.35
2019-04-16T04:16:38.766Z,-21411.16
2019-04-16T04:19:07.053Z,-21413.69
2019-04-16T04:21:35.330Z,-21376.56
2019-04-16T04:24:03.623Z,-21413.13
2019-04-16T04:26:31.878Z,-21396.40
2019-04-16T04:29:00.161Z,-21392.60
2019-04-16T04:31:32.127Z,-21404.55
2019-04-16T04:33:58.438Z,-21395.97
2019-04-16T04:36:28.248Z,-21399.64
2019-04-16T04:38:56.853Z,-21389.51
2019-04-16T04:41:25.113Z,-21385.57
2019-04-16T04:43:53.385Z,-21386.13
2019-04-16T04:46:21.650Z,-21386.13
2019-04-16T04:48:55.010Z,-21367.27
2019-04-16T04:51:19.940Z,-21377.69
2019-04-16T04:53:50.348Z,-21374.59
2019-04-16T04:56:19.551Z,-21376.56
2019-04-16T04:58:48.294Z,-21390.63
2019-04-16T05:01:16.628Z,-21412.85
2019-04-16T05:03:49.638Z,-21407.37
2019-04-16T05:06:19.542Z,-21397.11
2019-04-16T05:08:47.833Z,-21404.00
2019-04-16T05:11:16.963Z,-21405.82
2019-04-16T05:13:45.567Z,-21409.19
2019-04-16T05:16:13.841Z,-21401.89
2019-04-16T05:18:42.719Z,-21388.52
2019-04-16T05:21:11.239Z,-21401.04
2019-04-16T05:23:39.519Z,-21405.40
2019-04-16T05:26:09.835Z,-21389.93
2019-04-16T05:28:37.866Z,-21398.23
2019-04-16T05:31:06.139Z,-21370.79
2019-04-16T05:33:37.212Z,-21378.67
2019-04-16T05:36:04.509Z,-21391.34
2019-04-16T05:38:32.767Z,-21387.68
2019-04-16T05:41:12.479Z,-21386.41
2019-04-16T05:43:31.252Z,-21373.75
2019-04-16T05:45:59.801Z,-21384.02
2019-04-16T05:48:28.062Z,-21380.78
2019-04-16T05:50:59.710Z,-21375.15
2019-04-16T05:53:26.405Z,-21397.39
2019-04-16T05:55:57.449Z,-21415.66
2019-04-16T05:58:27.509Z,-21415.38
2019-04-16T06:01:00.435Z,-21378.25
2019-04-16T06:03:28.782Z,-21373.18
2019-04-16T06:05:59.240Z,-21416.08
2019-04-16T06:08:27.056Z,-21420.57
2019-04-16T06:10:57.478Z,-21421.70
2019-04-16T06:13:29.699Z,-21417.91
2019-04-16T06:16:08.087Z,-21418.32
2019-04-16T06:18:49.783Z,-21432.23
2019-04-16T06:21:19.698Z,-21432.23
2019-04-16T06:24:05.722Z,-21422.27
2019-04-16T06:26:51.628Z,-21421.14
2019-04-16T06:29:33.739Z,-21445.85
2019-04-16T06:32:11.908Z,-21421.99
2019-04-16T06:34:57.467Z,-21443.46
2019-04-16T06:37:27.952Z,-21422.12
2019-04-16T06:40:12.982Z,-21442.90
2019-04-16T06:42:42.928Z,-21430.55
2019-04-16T06:45:28.323Z,-21448.52
2019-04-16T06:47:58.253Z,-21453.14
2019-04-16T06:50:32.116Z,-21443.88
2019-04-16T06:53:19.871Z,-21439.81
2019-04-16T06:55:57.942Z,-21446.27
2019-04-16T06:58:51.384Z,-21465.62
2019-04-16T07:04:20.267Z,-21436.73
2019-04-16T07:07:08.402Z,-21467.86
2019-04-16T07:09:41.676Z,-21470.95
2019-04-16T07:12:09.439Z,-21464.50
2019-04-16T07:14:37.728Z,-21476.97
2019-04-16T07:17:05.993Z,-21478.65
2019-04-16T07:19:34.271Z,-21488.46
2019-04-16T07:22:02.543Z,-21499.38
2019-04-16T07:24:32.067Z,-21491.40
2019-04-16T07:27:00.900Z,-21493.78
2019-04-16T07:29:32.708Z,-21501.19
2019-04-16T07:32:03.089Z,-21500.78
2019-04-16T07:34:33.201Z,-21489.86
2019-04-16T07:37:03.130Z,-21495.88
2019-04-16T07:39:50.879Z,-21479.91
2019-04-16T07:42:22.321Z,-21477.54
2019-04-16T07:45:11.679Z,-21483.27
2019-04-16T07:47:40.133Z,-21503.29
2019-04-16T07:50:16.789Z,-21494.20
2019-04-16T07:52:55.708Z,-21515.32
2019-04-16T07:55:45.980Z,-21513.78
2019-04-16T07:58:14.255Z,-21510.15
2019-04-16T08:00:42.518Z,-21506.23
2019-04-16T08:03:10.807Z,-21521.05
2019-04-16T08:05:41.248Z,-21502.87
2019-04-16T08:08:09.170Z,-21525.94
2019-04-16T08:10:37.441Z,-21514.91
2019-04-16T08:13:07.381Z,-21519.65
2019-04-16T08:15:35.790Z,-21500.07
2019-04-16T08:18:04.054Z,-21518.40
2019-04-16T08:20:33.098Z,-21513.64
2019-04-16T08:23:05.927Z,-21516.02
2019-04-16T08:25:34.974Z,-21527.20
2019-04-16T08:28:06.575Z,-21529.86
2019-04-16T08:30:39.008Z,-21535.44
2019-04-16T08:33:03.391Z,-21546.33
2019-04-16T08:35:31.666Z,-21559.73
2019-04-16T08:37:59.926Z,-21560.29
2019-04-16T08:40:28.187Z,-21565.73
2019-04-16T08:42:57.297Z,-21567.27
2019-04-16T08:45:26.639Z,-21541.59
2019-04-16T08:47:54.899Z,-21551.08
2019-04-16T08:50:25.859Z,-21563.78
2019-04-16T08:52:53.164Z,-21560.29
2019-04-16T08:55:23.586Z,-21548.99
2019-04-16T08:57:51.428Z,-21544.52
2019-04-16T09:00:19.754Z,-21547.03
2019-04-16T09:02:48.024Z,-21552.34
2019-04-16T09:05:16.321Z,-21561.82
2019-04-16T09:07:44.593Z,-21546.33
2019-04-16T09:10:21.379Z,-21565.31
2019-04-16T09:12:50.957Z,-21558.06
2019-04-16T09:15:18.095Z,-21563.22
2019-04-16T09:17:48.002Z,-21566.71
2019-04-16T09:20:17.908Z,-21584.12
2019-04-16T09:22:49.115Z,-21582.59
2019-04-16T09:25:17.826Z,-21563.50
2019-04-16T09:27:47.757Z,-21592.49
2019-04-16T09:30:33.651Z,-21587.20
2019-04-16T09:33:06.457Z,-21583.29
2019-04-16T09:35:36.363Z,-21583.85
2019-04-16T09:38:21.571Z,-21588.87
2019-04-16T09:41:09.741Z,-21591.09
2019-04-16T09:43:57.114Z,-21602.51
2019-04-16T09:46:48.779Z,-21596.94
2019-04-16T09:48:55.244Z,-21590.54
2019-04-16T09:51:25.368Z,-21584.41
2019-04-16T09:53:53.516Z,-21584.55
2019-04-16T09:56:30.033Z,-21577.71
2019-04-16T09:59:01.510Z,-21604.32
2019-04-16T10:01:31.451Z,-21610.02
2019-04-16T10:04:00.297Z,-21623.38
2019-04-16T10:06:28.579Z,-21601.67
2019-04-16T10:08:57.003Z,-21633.66
2019-04-16T10:11:25.329Z,-21630.88
2019-04-16T10:13:53.673Z,-21585.11
2019-04-16T10:16:23.578Z,-21596.80
2019-04-16T10:18:51.874Z,-21598.33
2019-04-16T10:21:20.364Z,-21635.88
2019-04-16T10:23:56.460Z,-21630.74
2019-04-16T10:26:24.727Z,-21649.21
2019-04-16T10:28:53.684Z,-21652.82
2019-04-16T10:31:23.772Z,-21655.46
2019-04-16T10:33:52.031Z,-21652.13
2019-04-16T10:36:20.305Z,-21633.11
2019-04-16T10:38:50.257Z,-21623.24
2019-04-16T10:41:20.165Z,-21614.20
2019-04-16T10:43:50.082Z,-21626.99
2019-04-16T10:46:20.012Z,-21652.82
2019-04-16T10:48:52.870Z,-21675.85
2019-04-16T10:51:22.777Z,-21623.10
2019-04-16T10:53:52.688Z,-21631.57
2019-04-16T10:56:28.841Z,-21675.98
2019-04-16T10:58:58.755Z,-21653.38
2019-04-16T11:01:32.945Z,-21623.10
2019-04-16T11:04:00.261Z,-21616.14
2019-04-16T11:06:30.200Z,-21638.80
2019-04-16T11:09:05.450Z,-21671.69
2019-04-16T11:11:36.142Z,-21668.22
2019-04-16T11:14:04.597Z,-21674.32
2019-04-16T11:16:35.876Z,-21673.22
2019-04-16T11:19:02.967Z,-21658.10
2019-04-16T11:21:31.191Z,-21626.57
2019-04-16T11:23:59.448Z,-21623.79
2019-04-16T11:26:27.731Z,-21637.83
2019-04-16T11:28:56.030Z,-21622.40
2019-04-16T11:31:26.127Z,-21680.14
2019-04-16T11:33:54.420Z,-21700.23
2019-04-16T11:36:22.718Z,-21677.37
2019-04-16T11:38:50.991Z,-21696.21
2019-04-16T11:41:19.360Z,-21685.55
2019-04-16T11:43:47.616Z,-21687.21
2019-04-16T11:46:16.193Z,-21707.84
2019-04-16T11:48:44.420Z,-21771.51
2019-04-16T11:51:12.669Z,-21767.24
2019-04-16T11:53:41.035Z,-21716.00
2019-04-16T11:56:09.294Z,-21726.09
2019-04-16T11:58:39.206Z,-21748.06
2019-04-16T12:01:09.206Z,-21754.41
2019-04-16T12:03:44.867Z,-21747.78
2019-04-16T12:06:31.253Z,-21804.42
2019-04-16T12:09:19.323Z,-21776.61
2019-04-16T12:11:49.252Z,-21796.99
2019-04-16T12:14:35.429Z,-21791.07
2019-04-16T12:17:15.157Z,-21752.61
2019-04-16T12:20:00.435Z,-21815.28
2019-04-16T12:22:36.494Z,-21788.18
2019-04-16T12:25:13.350Z,-21836.58
2019-04-16T12:27:52.409Z,-21833.56
2019-04-16T12:30:38.353Z,-21877.45
2019-04-16T12:33:13.927Z,-21849.07
2019-04-16T12:35:45.186Z,-21864.84
2019-04-16T12:38:30.280Z,-21750.96
2019-04-16T12:41:09.038Z,-21806.49
2019-04-16T12:43:51.641Z,-21831.23
2019-04-16T12:46:27.146Z,-21819.82
2019-04-16T12:48:59.779Z,-21838.09
2019-04-16T12:51:40.782Z,-21838.09
2019-04-16T12:54:26.374Z,-21897.70
2019-04-16T12:57:10.664Z,-21912.19
2019-04-16T12:59:39.980Z,-21757.86
2019-04-16T13:02:21.865Z,-21821.89
2019-04-16T13:04:51.800Z,-21915.33
2019-04-16T13:07:27.953Z,-21898.93
2019-04-16T13:10:03.860Z,-21911.64
2019-04-16T13:12:36.653Z,-21908.23
2019-04-16T13:15:10.950Z,-21877.03
2019-04-16T13:17:56.729Z,-21924.48
2019-04-16T13:20:38.483Z,-21975.05
2019-04-16T13:23:08.399Z,-21987.57
2019-04-16T13:25:44.065Z,-21907.14
2019-04-16T13:28:12.369Z,-21885.80
2019-04-16T13:30:40.652Z,-21925.03
2019-04-16T13:33:08.939Z,-21915.33
2019-04-16T13:35:37.237Z,-21836.72
2019-04-16T13:38:09.534Z,-21809.92
2019-04-16T13:40:35.606Z,-21884.98
2019-04-16T13:43:05.890Z,-21790.66
2019-04-16T13:45:35.605Z,-21744.74
2019-04-16T13:48:15.979Z,-21804.15
2019-04-16T13:50:50.863Z,-21786.94
2019-04-16T13:53:28.701Z,-21798.50
2019-04-16T13:56:10.938Z,-21785.70
2019-04-16T13:58:43.345Z,-21814.87
2019-04-16T14:01:22.189Z,-21785.70
2019-04-16T14:03:50.474Z,-21883.06
2019-04-16T14:06:18.809Z,-21827.79
2019-04-16T14:08:47.068Z,-21723.19
2019-04-16T14:11:16.556Z,-21774.68
2019-04-16T14:13:46.421Z,-21694.41
2019-04-16T14:16:15.394Z,-21754.82
2019-04-16T14:18:43.664Z,-21771.09
2019-04-16T14:21:12.012Z,-21748.75
2019-04-16T14:23:40.304Z,-21797.27
2019-04-16T14:26:08.594Z,-21868.96
2019-04-16T14:28:51.294Z,-21841.38
2019-04-16T14:31:06.865Z,-21870.32
2019-04-16T14:33:42.826Z,-21871.14
2019-04-16T14:36:12.802Z,-21843.18
2019-04-16T14:38:51.823Z,-21885.80
2019-04-16T14:41:20.133Z,-21862.79
2019-04-16T14:43:50.099Z,-21759.51
2019-04-16T14:46:18.377Z,-21778.54
2019-04-16T14:48:46.855Z,-21794.79
2019-04-16T14:51:15.254Z,-21808.96
2019-04-16T14:53:45.163Z,-21722.36
2019-04-16T14:56:20.882Z,-21724.99
2019-04-16T14:58:50.881Z,-21755.51
2019-04-16T15:01:20.788Z,-21750.82
2019-04-16T15:03:50.724Z,-21720.98
2019-04-16T15:06:26.610Z,-21765.71
2019-04-16T15:09:05.559Z,-21791.35
2019-04-16T15:11:51.617Z,-21742.54
2019-04-16T15:14:23.402Z,-21796.44
2019-04-16T15:17:12.240Z,-21832.60
2019-04-16T15:19:49.590Z,-21829.58
2019-04-16T15:22:35.967Z,-21779.09
2019-04-16T15:25:07.924Z,-21724.16
2019-04-16T15:27:53.775Z,-21753.58
2019-04-16T15:30:29.432Z,-21753.16
2019-04-16T15:33:15.768Z,-21797.68
2019-04-16T15:36:02.199Z,-21783.50
2019-04-16T15:38:37.852Z,-21766.27
2019-04-16T15:41:17.242Z,-21697.60
2019-04-16T15:44:01.608Z,-21742.95
2019-04-16T15:46:41.381Z,-21698.02
2019-04-16T15:49:30.054Z,-21756.89
2019-04-16T15:52:16.394Z,-21735.21
2019-04-16T15:54:49.100Z,-21735.49
2019-04-16T15:57:35.458Z,-21689.71
2019-04-16T16:00:12.726Z,-21695.80
2019-04-16T16:02:59.184Z,-21653.24
2019-04-16T16:05:29.089Z,-21689.57
2019-04-16T16:08:02.003Z,-21700.50
2019-04-16T16:10:33.153Z,-21718.35
2019-04-16T16:13:01.519Z,-21696.08
2019-04-16T16:15:29.879Z,-21678.34
2019-04-16T16:17:58.179Z,-21684.86
2019-04-16T16:20:27.652Z,-21661.15
2019-04-16T16:22:58.151Z,-21682.91
2019-04-16T16:25:25.918Z,-21676.13
2019-04-16T16:27:54.246Z,-21660.45
2019-04-16T16:30:22.466Z,-21680.97
2019-04-16T16:32:50.783Z,-21690.26
2019-04-16T16:35:19.074Z,-21662.54
2019-04-16T16:37:47.364Z,-21669.47
2019-04-16T16:40:16.175Z,-21662.40
2019-04-16T16:42:44.558Z,-21646.43
2019-04-16T16:45:12.984Z,-21677.23
2019-04-16T16:47:41.280Z,-21663.51
2019-04-16T16:50:11.708Z,-21665.73
2019-04-16T16:52:41.627Z,-21638.66
2019-04-16T16:55:21.757Z,-21677.23
2019-04-16T16:58:03.692Z,-21644.77
2019-04-16T17:00:45.674Z,-21660.87
2019-04-16T17:03:18.720Z,-21633.52
2019-04-16T17:05:47.012Z,-21658.52
2019-04-16T17:08:15.279Z,-21641.72
2019-04-16T17:10:43.569Z,-21664.06
2019-04-16T17:13:14.559Z,-21657.68
2019-04-16T17:15:41.920Z,-21650.05
2019-04-16T17:18:10.183Z,-21593.32
2019-04-16T17:20:41.193Z,-21618.09
2019-04-16T17:23:08.502Z,-21624.07
2019-04-16T17:25:37.098Z,-21624.07
2019-04-16T17:28:05.404Z,-21631.71
2019-04-16T17:30:33.751Z,-21628.24
2019-04-16T17:33:02.052Z,-21630.05
2019-04-16T17:35:30.491Z,-21654.77
2019-04-16T17:38:02.713Z,-21644.91
2019-04-16T17:40:37.180Z,-21635.61
2019-04-16T17:43:12.943Z,-21629.63
2019-04-16T17:45:54.945Z,-21637.27
2019-04-16T17:48:24.874Z,-21644.22
2019-04-16T17:51:06.739Z,-21647.96
2019-04-16T17:53:42.343Z,-21636.58
2019-04-16T17:56:28.390Z,-21622.82
2019-04-16T17:58:58.320Z,-21643.38
2019-04-16T18:01:34.215Z,-21641.16
2019-04-16T18:04:04.487Z,-21626.29
2019-04-16T18:06:50.641Z,-21618.92
2019-04-16T18:09:23.282Z,-21602.37
2019-04-16T18:11:58.929Z,-21592.91
2019-04-16T18:14:41.095Z,-21607.66
2019-04-16T18:17:13.974Z,-21604.18
2019-04-16T18:20:00.033Z,-21630.18
2019-04-16T18:22:32.657Z,-21574.51
2019-04-16T18:27:44.389Z,-21558.20
2019-04-16T18:30:32.591Z,-21560.43
2019-04-16T18:33:20.730Z,-21596.94
2019-04-16T18:35:53.301Z,-21600.00
2019-04-16T18:38:23.387Z,-21607.38
2019-04-16T18:41:09.663Z,-21593.46
2019-04-16T18:43:51.562Z,-21602.93
2019-04-16T18:46:37.521Z,-21575.21
2019-04-16T18:49:23.425Z,-21562.24
2019-04-16T18:51:51.697Z,-21588.17
2019-04-16T18:54:20.049Z,-21610.02
2019-04-16T18:56:48.396Z,-21579.25
2019-04-16T18:59:16.684Z,-21572.43
2019-04-16T19:01:46.571Z,-21554.99
2019-04-16T19:04:14.838Z,-21554.99
2019-04-16T19:06:43.169Z,-21548.85
2019-04-16T19:09:11.429Z,-21563.50
2019-04-16T19:11:39.705Z,-21572.98
2019-04-16T19:14:10.334Z,-21599.86
2019-04-16T19:16:38.053Z,-21573.68
2019-04-16T19:19:06.703Z,-21591.23
2019-04-16T19:21:35.297Z,-21572.14
2019-04-16T19:24:03.564Z,-21571.72
2019-04-16T19:26:31.852Z,-21583.71
2019-04-16T19:29:00.256Z,-21576.60
2019-04-16T19:31:28.536Z,-21572.70
2019-04-16T19:33:56.915Z,-21559.31
2019-04-16T19:36:27.507Z,-21541.31
2019-04-16T19:38:55.142Z,-21531.25
2019-04-16T19:41:24.503Z,-21554.57
2019-04-16T19:43:53.096Z,-21554.01
2019-04-16T19:46:21.362Z,-21615.03
2019-04-16T19:48:49.944Z,-21547.03
2019-04-16T19:51:19.851Z,-21558.20
2019-04-16T19:53:48.574Z,-21565.17
2019-04-16T19:56:18.648Z,-21569.63
2019-04-16T19:58:48.148Z,-21563.22
2019-04-16T20:01:16.512Z,-21523.71
2019-04-16T20:03:44.841Z,-21549.41
2019-04-16T20:06:13.232Z,-21523.01
2019-04-16T20:08:41.659Z,-21551.22
2019-04-16T20:11:09.926Z,-21541.31
2019-04-16T20:13:38.207Z,-21524.68
2019-04-16T20:16:06.744Z,-21531.39
2019-04-16T20:18:50.008Z,-21539.77
2019-04-16T20:21:05.157Z,-21542.56
2019-04-16T20:23:33.458Z,-21568.52
2019-04-16T20:26:01.737Z,-21565.17
2019-04-16T20:28:30.114Z,-21508.75
2019-04-16T20:31:03.250Z,-21543.54
2019-04-16T20:33:28.695Z,-21514.91
2019-04-16T20:35:56.973Z,-21566.57
2019-04-16T20:38:29.016Z,-21576.60
2019-04-16T20:40:55.471Z,-21566.15
2019-04-16T20:43:23.780Z,-21539.21
2019-04-16T20:45:52.066Z,-21528.46
2019-04-16T20:48:21.251Z,-21525.11
2019-04-16T20:50:52.683Z,-21517.42
2019-04-16T20:53:19.546Z,-21520.77
2019-04-16T20:55:48.294Z,-21512.24
2019-04-16T20:58:16.549Z,-21533.35
2019-04-16T21:00:46.536Z,-21551.92
2019-04-16T21:03:22.346Z,-21567.12
2019-04-16T21:05:57.444Z,-21592.49
2019-04-16T21:08:17.155Z,-21528.88
2019-04-16T21:10:44.803Z,-21581.90
2019-04-16T21:13:15.951Z,-21563.22
2019-04-16T21:15:43.072Z,-21572.70
2019-04-16T21:18:12.242Z,-21547.32
2019-04-16T21:20:40.601Z,-21553.73
2019-04-16T21:23:08.885Z,-21568.52
2019-04-16T21:25:37.276Z,-21569.08
2019-04-16T21:28:12.826Z,-21560.15
2019-04-16T21:30:43.416Z,-21525.52
2019-04-16T21:33:31.904Z,-21515.46
2019-04-16T21:36:04.743Z,-21534.46
2019-04-16T21:38:45.198Z,-21560.99
2019-04-16T21:41:12.608Z,-21545.78
2019-04-16T21:43:41.987Z,-21543.54
2019-04-16T21:46:10.247Z,-21537.40
2019-04-16T21:48:42.296Z,-21554.57
2019-04-16T21:51:19.071Z,-21507.49
2019-04-16T21:53:44.619Z,-21497.28
2019-04-16T21:56:14.718Z,-21540.61
2019-04-16T21:58:43.207Z,-21536.42
2019-04-16T22:01:13.105Z,-21533.35
2019-04-16T22:03:42.970Z,-21544.66
2019-04-16T22:06:11.327Z,-21531.54
2019-04-16T22:08:39.611Z,-21524.96
2019-04-16T22:11:09.026Z,-21522.03
2019-04-16T22:13:37.846Z,-21574.65
2019-04-16T22:16:06.105Z,-21558.61
2019-04-16T22:18:34.390Z,-21540.75
2019-04-16T22:21:02.632Z,-21551.78
2019-04-16T22:23:30.921Z,-21552.90
2019-04-16T22:26:01.355Z,-21518.54
2019-04-16T22:28:29.197Z,-21563.63
2019-04-16T22:30:57.506Z,-21564.61
2019-04-16T22:33:25.788Z,-21573.12
2019-04-16T22:35:54.064Z,-21562.52
2019-04-16T22:38:22.447Z,-21545.64
2019-04-16T22:40:54.961Z,-21546.61
2019-04-16T22:43:43.754Z,-21523.84
2019-04-16T22:46:13.670Z,-21522.31
2019-04-16T22:48:58.391Z,-21524.55
2019-04-16T22:51:26.804Z,-21547.32
2019-04-16T22:53:55.091Z,-21545.36
2019-04-16T22:56:28.313Z,-21544.24
2019-04-16T22:58:55.535Z,-21544.10
2019-04-16T23:01:27.872Z,-21565.45
2019-04-16T23:03:56.385Z,-21544.94
2019-04-16T23:06:24.738Z,-21548.99
2019-04-16T23:08:52.993Z,-21537.96
2019-04-16T23:11:23.764Z,-21556.10
2019-04-16T23:13:51.400Z,-21566.71
2019-04-16T23:16:19.681Z,-21605.44
2019-04-16T23:18:49.320Z,-21611.00
2019-04-16T23:21:17.941Z,-21597.77
2019-04-16T23:23:47.711Z,-21590.54
2019-04-16T23:26:16.214Z,-21593.88
2019-04-16T23:28:47.802Z,-21594.57
2019-04-16T23:31:16.062Z,-21598.05
2019-04-16T23:33:44.315Z,-21589.84
2019-04-16T23:36:15.885Z,-21579.67
2019-04-16T23:38:42.578Z,-21580.92
2019-04-16T23:41:15.400Z,-21567.54
2019-04-16T23:43:54.856Z,-21533.49
2019-04-16T23:46:41.004Z,-21536.56
2019-04-16T23:49:27.059Z,-21535.86
2019-04-16T23:52:01.797Z,-21534.19
2019-04-16T23:54:28.635Z,-21554.85
2019-04-16T23:56:58.535Z,-21536.56
2019-04-16T23:59:28.429Z,-21548.01
